sensor_id;sensor_type;location;lat;lon;timestamp;pressure;altitude;pressure_sealevel;temperature;humidity
11672;BME280;5892;43.412;24.612;2024-03-08T00:00:34;100475.63;;;3.55;89.02
11672;BME280;5892;43.412;24.612;2024-03-08T00:03:00;100479.81;;;3.57;89.17
11672;BME280;5892;43.412;24.612;2024-03-08T00:05:28;100477.25;;;3.57;88.89
11672;BME280;5892;43.412;24.612;2024-03-08T00:07:54;100471.25;;;3.57;89.34
11672;BME280;5892;43.412;24.612;2024-03-08T00:10:19;100471.91;;;3.43;88.53
11672;BME280;5892;43.412;24.612;2024-03-08T00:12:46;100480.06;;;3.32;89.11
11672;BME280;5892;43.412;24.612;2024-03-08T00:15:15;100484.44;;;3.30;88.39
11672;BME280;5892;43.412;24.612;2024-03-08T00:17:42;100480.28;;;3.28;87.88
11672;BME280;5892;43.412;24.612;2024-03-08T00:20:07;100482.06;;;3.26;87.90
11672;BME280;5892;43.412;24.612;2024-03-08T00:22:37;100494.00;;;3.27;87.85
11672;BME280;5892;43.412;24.612;2024-03-08T00:25:06;100491.56;;;3.24;88.79
11672;BME280;5892;43.412;24.612;2024-03-08T00:27:35;100478.16;;;3.17;88.59
11672;BME280;5892;43.412;24.612;2024-03-08T00:30:01;100484.25;;;3.14;88.50
11672;BME280;5892;43.412;24.612;2024-03-08T00:32:26;100480.09;;;3.12;88.54
11672;BME280;5892;43.412;24.612;2024-03-08T00:34:54;100491.34;;;3.09;88.28
11672;BME280;5892;43.412;24.612;2024-03-08T00:37:20;100481.19;;;3.06;88.09
11672;BME280;5892;43.412;24.612;2024-03-08T00:39:51;100480.41;;;3.04;88.53
11672;BME280;5892;43.412;24.612;2024-03-08T00:42:18;100491.63;;;3.03;88.21
11672;BME280;5892;43.412;24.612;2024-03-08T00:44:43;100484.78;;;3.02;88.74
11672;BME280;5892;43.412;24.612;2024-03-08T00:47:13;100499.69;;;2.94;87.40
11672;BME280;5892;43.412;24.612;2024-03-08T00:49:41;100474.22;;;2.89;87.98
11672;BME280;5892;43.412;24.612;2024-03-08T00:52:07;100475.44;;;2.80;88.87
11672;BME280;5892;43.412;24.612;2024-03-08T00:54:39;100483.69;;;2.87;87.67
11672;BME280;5892;43.412;24.612;2024-03-08T00:57:05;100464.66;;;2.72;89.10
11672;BME280;5892;43.412;24.612;2024-03-08T00:59:32;100493.47;;;2.79;89.09
11672;BME280;5892;43.412;24.612;2024-03-08T01:02:02;100489.03;;;2.82;88.19
11672;BME280;5892;43.412;24.612;2024-03-08T01:04:29;100485.72;;;2.80;88.71
11672;BME280;5892;43.412;24.612;2024-03-08T01:06:58;100484.03;;;2.79;88.74
11672;BME280;5892;43.412;24.612;2024-03-08T01:09:24;100484.97;;;2.77;87.83
11672;BME280;5892;43.412;24.612;2024-03-08T01:11:50;100485.56;;;2.83;88.03
11672;BME280;5892;43.412;24.612;2024-03-08T01:14:16;100492.75;;;2.75;87.11
11672;BME280;5892;43.412;24.612;2024-03-08T01:16:41;100494.81;;;2.67;87.76
11672;BME280;5892;43.412;24.612;2024-03-08T01:19:07;100482.84;;;2.66;87.74
11672;BME280;5892;43.412;24.612;2024-03-08T01:21:33;100479.53;;;2.64;88.13
11672;BME280;5892;43.412;24.612;2024-03-08T01:24:00;100486.28;;;2.67;88.59
11672;BME280;5892;43.412;24.612;2024-03-08T01:26:25;100493.84;;;2.70;88.15
11672;BME280;5892;43.412;24.612;2024-03-08T01:28:51;100497.09;;;2.73;88.30
11672;BME280;5892;43.412;24.612;2024-03-08T01:31:16;100499.16;;;2.65;87.36
11672;BME280;5892;43.412;24.612;2024-03-08T01:33:42;100490.38;;;2.71;87.85
11672;BME280;5892;43.412;24.612;2024-03-08T01:36:07;100479.78;;;2.58;88.46
11672;BME280;5892;43.412;24.612;2024-03-08T01:38:33;100492.47;;;2.61;87.71
11672;BME280;5892;43.412;24.612;2024-03-08T01:40:59;100495.63;;;2.68;87.87
11672;BME280;5892;43.412;24.612;2024-03-08T01:43:28;100501.84;;;2.62;87.92
11672;BME280;5892;43.412;24.612;2024-03-08T01:45:55;100494.81;;;2.67;87.67
11672;BME280;5892;43.412;24.612;2024-03-08T01:48:23;100490.75;;;2.61;88.71
11672;BME280;5892;43.412;24.612;2024-03-08T01:50:50;100494.09;;;2.63;87.75
11672;BME280;5892;43.412;24.612;2024-03-08T01:53:17;100499.16;;;2.65;88.27
11672;BME280;5892;43.412;24.612;2024-03-08T01:55:47;100499.53;;;2.56;87.76
11672;BME280;5892;43.412;24.612;2024-03-08T01:58:13;100494.16;;;2.62;88.78
11672;BME280;5892;43.412;24.612;2024-03-08T02:00:47;100496.16;;;2.76;87.87
11672;BME280;5892;43.412;24.612;2024-03-08T02:03:17;100491.19;;;2.71;87.92
11672;BME280;5892;43.412;24.612;2024-03-08T02:05:45;100506.34;;;2.57;87.53
11672;BME280;5892;43.412;24.612;2024-03-08T02:08:11;100497.44;;;2.66;86.72
11672;BME280;5892;43.412;24.612;2024-03-08T02:10:59;100496.47;;;2.68;87.12
11672;BME280;5892;43.412;24.612;2024-03-08T02:13:26;100497.59;;;2.61;88.24
11672;BME280;5892;43.412;24.612;2024-03-08T02:15:54;100506.50;;;2.52;87.42
11672;BME280;5892;43.412;24.612;2024-03-08T02:18:21;100504.91;;;2.50;87.41
11672;BME280;5892;43.412;24.612;2024-03-08T02:20:51;100508.69;;;2.41;87.37
11672;BME280;5892;43.412;24.612;2024-03-08T02:23:18;100509.41;;;2.44;87.62
11672;BME280;5892;43.412;24.612;2024-03-08T02:25:46;100501.38;;;2.52;87.78
11672;BME280;5892;43.412;24.612;2024-03-08T02:28:12;100497.28;;;2.48;87.10
11672;BME280;5892;43.412;24.612;2024-03-08T02:30:39;100503.28;;;2.47;87.88
11672;BME280;5892;43.412;24.612;2024-03-08T02:33:05;100518.75;;;2.45;87.39
11672;BME280;5892;43.412;24.612;2024-03-08T02:35:31;100511.00;;;2.47;87.37
11672;BME280;5892;43.412;24.612;2024-03-08T02:37:57;100504.22;;;2.46;87.41
11672;BME280;5892;43.412;24.612;2024-03-08T02:40:22;100501.59;;;2.48;87.40
11672;BME280;5892;43.412;24.612;2024-03-08T02:42:47;100507.22;;;2.56;88.07
11672;BME280;5892;43.412;24.612;2024-03-08T02:45:13;100514.16;;;2.54;88.07
11672;BME280;5892;43.412;24.612;2024-03-08T02:47:39;100509.06;;;2.52;87.81
11672;BME280;5892;43.412;24.612;2024-03-08T02:50:05;100510.81;;;2.52;87.05
11672;BME280;5892;43.412;24.612;2024-03-08T02:52:33;100510.88;;;2.50;86.97
11672;BME280;5892;43.412;24.612;2024-03-08T02:54:59;100513.50;;;2.49;87.32
11672;BME280;5892;43.412;24.612;2024-03-08T02:57:24;100515.41;;;2.43;88.39
11672;BME280;5892;43.412;24.612;2024-03-08T02:59:50;100520.75;;;2.59;87.53
11672;BME280;5892;43.412;24.612;2024-03-08T03:02:16;100518.53;;;2.52;86.85
11672;BME280;5892;43.412;24.612;2024-03-08T03:04:42;100521.16;;;2.50;86.63
11672;BME280;5892;43.412;24.612;2024-03-08T03:07:08;100517.69;;;2.51;87.24
11672;BME280;5892;43.412;24.612;2024-03-08T03:09:34;100518.53;;;2.52;87.40
11672;BME280;5892;43.412;24.612;2024-03-08T03:12:00;100520.69;;;2.40;87.56
11672;BME280;5892;43.412;24.612;2024-03-08T03:14:25;100528.38;;;2.40;87.80
11672;BME280;5892;43.412;24.612;2024-03-08T03:16:55;100528.25;;;2.43;87.16
11672;BME280;5892;43.412;24.612;2024-03-08T03:19:21;100527.19;;;2.49;86.69
11672;BME280;5892;43.412;24.612;2024-03-08T03:21:47;100512.09;;;2.41;87.47
11672;BME280;5892;43.412;24.612;2024-03-08T03:24:12;100530.47;;;2.31;86.56
11672;BME280;5892;43.412;24.612;2024-03-08T03:26:41;100521.75;;;2.35;88.04
11672;BME280;5892;43.412;24.612;2024-03-08T03:29:09;100536.25;;;2.36;87.29
11672;BME280;5892;43.412;24.612;2024-03-08T03:31:36;100532.66;;;2.40;87.50
11672;BME280;5892;43.412;24.612;2024-03-08T03:34:02;100536.09;;;2.40;88.06
11672;BME280;5892;43.412;24.612;2024-03-08T03:36:31;100530.22;;;2.37;86.40
11672;BME280;5892;43.412;24.612;2024-03-08T03:38:57;100526.00;;;2.36;86.38
11672;BME280;5892;43.412;24.612;2024-03-08T03:41:51;100527.66;;;2.37;87.43
11672;BME280;5892;43.412;24.612;2024-03-08T03:44:17;100531.19;;;2.34;86.82
11672;BME280;5892;43.412;24.612;2024-03-08T03:46:43;100527.59;;;2.38;86.47
11672;BME280;5892;43.412;24.612;2024-03-08T03:49:11;100527.03;;;2.32;88.28
11672;BME280;5892;43.412;24.612;2024-03-08T03:51:38;100533.53;;;2.40;86.81
11672;BME280;5892;43.412;24.612;2024-03-08T03:54:04;100527.78;;;2.34;87.06
11672;BME280;5892;43.412;24.612;2024-03-08T03:56:29;100529.22;;;2.41;87.51
11672;BME280;5892;43.412;24.612;2024-03-08T03:58:56;100528.50;;;2.37;86.59
11672;BME280;5892;43.412;24.612;2024-03-08T04:01:21;100523.53;;;2.33;86.56
11672;BME280;5892;43.412;24.612;2024-03-08T04:03:47;100529.44;;;2.35;87.34
11672;BME280;5892;43.412;24.612;2024-03-08T04:06:13;100529.81;;;2.25;88.34
11672;BME280;5892;43.412;24.612;2024-03-08T04:08:39;100545.53;;;2.38;86.91
11672;BME280;5892;43.412;24.612;2024-03-08T04:11:05;100543.28;;;2.31;86.59
11672;BME280;5892;43.412;24.612;2024-03-08T04:13:30;100547.81;;;2.24;87.60
11672;BME280;5892;43.412;24.612;2024-03-08T04:15:56;100546.88;;;2.26;88.28
11672;BME280;5892;43.412;24.612;2024-03-08T04:18:21;100551.88;;;2.30;86.92
11672;BME280;5892;43.412;24.612;2024-03-08T04:20:47;100552.09;;;2.45;87.86
11672;BME280;5892;43.412;24.612;2024-03-08T04:23:13;100549.50;;;2.47;87.17
11672;BME280;5892;43.412;24.612;2024-03-08T04:25:38;100558.22;;;2.43;87.33
11672;BME280;5892;43.412;24.612;2024-03-08T04:28:04;100558.22;;;2.43;86.98
11672;BME280;5892;43.412;24.612;2024-03-08T04:30:30;100559.75;;;2.47;87.18
11672;BME280;5892;43.412;24.612;2024-03-08T04:32:55;100568.81;;;2.56;86.85
11672;BME280;5892;43.412;24.612;2024-03-08T04:35:21;100562.84;;;2.55;86.95
11672;BME280;5892;43.412;24.612;2024-03-08T04:37:47;100568.81;;;2.56;86.70
11672;BME280;5892;43.412;24.612;2024-03-08T04:40:12;100577.38;;;2.56;86.81
11672;BME280;5892;43.412;24.612;2024-03-08T04:42:38;100578.09;;;2.60;87.19
11672;BME280;5892;43.412;24.612;2024-03-08T04:45:08;100584.66;;;2.67;87.25
11672;BME280;5892;43.412;24.612;2024-03-08T04:47:33;100584.22;;;2.56;86.06
11672;BME280;5892;43.412;24.612;2024-03-08T04:50:02;100585.59;;;2.64;87.29
11672;BME280;5892;43.412;24.612;2024-03-08T04:52:27;100592.88;;;2.75;86.07
11672;BME280;5892;43.412;24.612;2024-03-08T04:54:53;100589.84;;;2.66;86.72
11672;BME280;5892;43.412;24.612;2024-03-08T04:57:19;100596.78;;;2.63;87.45
11672;BME280;5892;43.412;24.612;2024-03-08T04:59:44;100591.59;;;2.65;87.39
11672;BME280;5892;43.412;24.612;2024-03-08T05:02:10;100599.13;;;2.68;88.00
11672;BME280;5892;43.412;24.612;2024-03-08T05:04:36;100608.63;;;2.88;86.06
11672;BME280;5892;43.412;24.612;2024-03-08T05:07:02;100611.50;;;2.80;86.40
11672;BME280;5892;43.412;24.612;2024-03-08T05:09:28;100610.00;;;2.75;86.84
11672;BME280;5892;43.412;24.612;2024-03-08T05:11:54;100603.66;;;2.83;86.81
11672;BME280;5892;43.412;24.612;2024-03-08T05:14:20;100618.13;;;2.86;86.71
11672;BME280;5892;43.412;24.612;2024-03-08T05:16:48;100619.56;;;2.71;87.36
11672;BME280;5892;43.412;24.612;2024-03-08T05:19:17;100631.56;;;2.71;87.04
11672;BME280;5892;43.412;24.612;2024-03-08T05:22:02;100632.34;;;2.73;86.97
11672;BME280;5892;43.412;24.612;2024-03-08T05:24:29;100628.13;;;2.72;87.04
11672;BME280;5892;43.412;24.612;2024-03-08T05:27:00;100640.94;;;2.72;87.81
11672;BME280;5892;43.412;24.612;2024-03-08T05:29:26;100639.63;;;2.83;86.46
11672;BME280;5892;43.412;24.612;2024-03-08T05:31:52;100641.19;;;2.88;87.36
11672;BME280;5892;43.412;24.612;2024-03-08T05:34:18;100645.78;;;2.79;87.52
11672;BME280;5892;43.412;24.612;2024-03-08T05:36:46;100650.13;;;2.77;87.50
11672;BME280;5892;43.412;24.612;2024-03-08T05:39:14;100645.28;;;2.70;86.53
11672;BME280;5892;43.412;24.612;2024-03-08T05:41:40;100657.72;;;2.80;86.77
11672;BME280;5892;43.412;24.612;2024-03-08T05:44:05;100653.53;;;2.78;88.38
11672;BME280;5892;43.412;24.612;2024-03-08T05:46:31;100664.78;;;2.75;86.65
11672;BME280;5892;43.412;24.612;2024-03-08T05:48:57;100664.63;;;2.78;88.70
11672;BME280;5892;43.412;24.612;2024-03-08T05:51:24;100664.69;;;2.77;87.09
11672;BME280;5892;43.412;24.612;2024-03-08T05:53:53;100669.06;;;2.75;86.61
11672;BME280;5892;43.412;24.612;2024-03-08T05:56:19;100669.81;;;2.55;86.76
11672;BME280;5892;43.412;24.612;2024-03-08T05:58:44;100669.44;;;2.42;88.37
11672;BME280;5892;43.412;24.612;2024-03-08T06:01:11;100678.50;;;2.51;87.94
11672;BME280;5892;43.412;24.612;2024-03-08T06:03:38;100681.03;;;2.52;87.26
11672;BME280;5892;43.412;24.612;2024-03-08T06:06:13;100687.13;;;2.50;86.45
11672;BME280;5892;43.412;24.612;2024-03-08T06:08:38;100689.69;;;2.50;87.41
11672;BME280;5892;43.412;24.612;2024-03-08T06:11:04;100687.19;;;2.48;86.65
11672;BME280;5892;43.412;24.612;2024-03-08T06:13:31;100681.28;;;2.46;88.18
11672;BME280;5892;43.412;24.612;2024-03-08T06:15:57;100694.19;;;2.67;87.83
11672;BME280;5892;43.412;24.612;2024-03-08T06:18:22;100691.69;;;2.65;87.57
11672;BME280;5892;43.412;24.612;2024-03-08T06:20:48;100690.91;;;2.63;87.95
11672;BME280;5892;43.412;24.612;2024-03-08T06:23:13;100702.53;;;2.50;87.66
11672;BME280;5892;43.412;24.612;2024-03-08T06:25:43;100699.19;;;2.48;86.95
11672;BME280;5892;43.412;24.612;2024-03-08T06:28:09;100694.78;;;2.51;87.09
11672;BME280;5892;43.412;24.612;2024-03-08T06:30:34;100703.13;;;2.56;87.35
11672;BME280;5892;43.412;24.612;2024-03-08T06:33:00;100704.03;;;2.55;88.01
11672;BME280;5892;43.412;24.612;2024-03-08T06:35:25;100706.31;;;2.63;86.94
11672;BME280;5892;43.412;24.612;2024-03-08T06:37:51;100703.75;;;2.63;87.84
11672;BME280;5892;43.412;24.612;2024-03-08T06:40:16;100708.13;;;2.59;86.97
11672;BME280;5892;43.412;24.612;2024-03-08T06:42:42;100714.31;;;2.77;87.04
11672;BME280;5892;43.412;24.612;2024-03-08T06:45:08;100707.69;;;2.72;86.94
11672;BME280;5892;43.412;24.612;2024-03-08T06:47:35;100707.69;;;2.72;86.33
11672;BME280;5892;43.412;24.612;2024-03-08T06:50:01;100705.91;;;2.74;86.75
11672;BME280;5892;43.412;24.612;2024-03-08T06:52:26;100713.59;;;2.74;86.64
11672;BME280;5892;43.412;24.612;2024-03-08T06:54:52;100715.16;;;2.78;84.86
11672;BME280;5892;43.412;24.612;2024-03-08T06:57:18;100719.22;;;2.83;85.62
11672;BME280;5892;43.412;24.612;2024-03-08T06:59:45;100719.56;;;2.74;84.76
11672;BME280;5892;43.412;24.612;2024-03-08T07:02:11;100721.09;;;2.56;86.06
11672;BME280;5892;43.412;24.612;2024-03-08T07:04:36;100728.41;;;2.67;87.23
11672;BME280;5892;43.412;24.612;2024-03-08T07:07:06;100730.03;;;2.46;86.58
11672;BME280;5892;43.412;24.612;2024-03-08T07:09:38;100732.59;;;2.46;86.00
11672;BME280;5892;43.412;24.612;2024-03-08T07:12:03;100725.41;;;2.32;85.19
11672;BME280;5892;43.412;24.612;2024-03-08T07:14:29;100730.13;;;2.43;85.94
11672;BME280;5892;43.412;24.612;2024-03-08T07:16:56;100726.56;;;2.47;86.40
11672;BME280;5892;43.412;24.612;2024-03-08T07:19:21;100724.41;;;2.60;85.38
11672;BME280;5892;43.412;24.612;2024-03-08T07:21:47;100730.69;;;2.51;84.54
11672;BME280;5892;43.412;24.612;2024-03-08T07:24:13;100733.88;;;2.58;85.42
11672;BME280;5892;43.412;24.612;2024-03-08T07:26:38;100730.25;;;2.63;86.38
11672;BME280;5892;43.412;24.612;2024-03-08T07:29:04;100735.19;;;2.68;86.92
11672;BME280;5892;43.412;24.612;2024-03-08T07:31:29;100737.13;;;2.85;85.29
11672;BME280;5892;43.412;24.612;2024-03-08T07:34:07;100735.59;;;2.81;86.40
11672;BME280;5892;43.412;24.612;2024-03-08T07:36:34;100722.59;;;2.62;86.13
11672;BME280;5892;43.412;24.612;2024-03-08T07:39:00;100732.06;;;2.83;85.59
11672;BME280;5892;43.412;24.612;2024-03-08T07:41:26;100739.28;;;2.96;84.75
11672;BME280;5892;43.412;24.612;2024-03-08T07:43:51;100741.69;;;3.00;83.95
11672;BME280;5892;43.412;24.612;2024-03-08T07:46:17;100746.47;;;2.88;85.49
11672;BME280;5892;43.412;24.612;2024-03-08T07:48:44;100735.91;;;2.95;83.26
11672;BME280;5892;43.412;24.612;2024-03-08T07:51:10;100741.63;;;3.02;82.76
11672;BME280;5892;43.412;24.612;2024-03-08T07:53:37;100743.03;;;2.87;83.79
11672;BME280;5892;43.412;24.612;2024-03-08T07:56:04;100752.13;;;2.96;84.31
11672;BME280;5892;43.412;24.612;2024-03-08T07:58:32;100745.66;;;2.86;85.13
11672;BME280;5892;43.412;24.612;2024-03-08T08:00:58;100740.97;;;2.97;83.29
11672;BME280;5892;43.412;24.612;2024-03-08T08:03:23;100745.03;;;3.02;82.46
11672;BME280;5892;43.412;24.612;2024-03-08T08:05:49;100750.75;;;2.87;83.21
11672;BME280;5892;43.412;24.612;2024-03-08T08:08:16;100761.88;;;2.88;82.15
11672;BME280;5892;43.412;24.612;2024-03-08T08:10:42;100753.72;;;2.76;84.40
11672;BME280;5892;43.412;24.612;2024-03-08T08:13:08;100756.22;;;2.78;85.54
11672;BME280;5892;43.412;24.612;2024-03-08T08:15:34;100756.59;;;2.91;86.09
11672;BME280;5892;43.412;24.612;2024-03-08T08:18:00;100760.22;;;3.09;84.65
11672;BME280;5892;43.412;24.612;2024-03-08T08:20:25;100763.38;;;2.93;84.21
11672;BME280;5892;43.412;24.612;2024-03-08T08:22:53;100768.16;;;3.02;82.43
11672;BME280;5892;43.412;24.612;2024-03-08T08:25:20;100765.78;;;2.98;83.68
11672;BME280;5892;43.412;24.612;2024-03-08T08:27:48;100770.09;;;2.96;83.60
11672;BME280;5892;43.412;24.612;2024-03-08T08:30:14;100768.41;;;2.96;83.80
11672;BME280;5892;43.412;24.612;2024-03-08T08:32:39;100768.72;;;2.87;82.28
11672;BME280;5892;43.412;24.612;2024-03-08T08:35:06;100757.00;;;2.80;84.09
11672;BME280;5892;43.412;24.612;2024-03-08T08:37:34;100758.41;;;2.89;83.38
11672;BME280;5892;43.412;24.612;2024-03-08T08:40:02;100767.00;;;2.88;83.22
11672;BME280;5892;43.412;24.612;2024-03-08T08:42:35;100764.88;;;2.99;83.71
11672;BME280;5892;43.412;24.612;2024-03-08T08:45:00;100762.53;;;2.93;82.52
11672;BME280;5892;43.412;24.612;2024-03-08T08:47:33;100760.25;;;2.85;82.38
11672;BME280;5892;43.412;24.612;2024-03-08T08:49:58;100770.66;;;3.04;82.66
11672;BME280;5892;43.412;24.612;2024-03-08T08:52:26;100766.19;;;3.09;81.32
11672;BME280;5892;43.412;24.612;2024-03-08T08:54:51;100769.19;;;3.20;82.30
11672;BME280;5892;43.412;24.612;2024-03-08T08:57:17;100770.56;;;3.07;83.34
11672;BME280;5892;43.412;24.612;2024-03-08T08:59:42;100768.22;;;3.23;81.33
11672;BME280;5892;43.412;24.612;2024-03-08T09:02:08;100769.38;;;2.92;82.25
11672;BME280;5892;43.412;24.612;2024-03-08T09:04:37;100774.25;;;3.00;81.79
11672;BME280;5892;43.412;24.612;2024-03-08T09:07:03;100770.91;;;2.98;81.75
11672;BME280;5892;43.412;24.612;2024-03-08T09:09:32;100772.47;;;3.02;82.23
11672;BME280;5892;43.412;24.612;2024-03-08T09:11:58;100770.19;;;3.16;82.63
11672;BME280;5892;43.412;24.612;2024-03-08T09:14:23;100776.75;;;3.24;81.66
11672;BME280;5892;43.412;24.612;2024-03-08T09:16:51;100773.31;;;3.25;82.05
11672;BME280;5892;43.412;24.612;2024-03-08T09:19:18;100772.78;;;3.38;80.51
11672;BME280;5892;43.412;24.612;2024-03-08T09:21:45;100777.84;;;3.40;81.42
11672;BME280;5892;43.412;24.612;2024-03-08T09:24:10;100776.88;;;3.43;81.06
11672;BME280;5892;43.412;24.612;2024-03-08T09:26:36;100783.94;;;3.59;79.77
11672;BME280;5892;43.412;24.612;2024-03-08T09:29:02;100771.03;;;3.39;80.05
11672;BME280;5892;43.412;24.612;2024-03-08T09:31:28;100776.47;;;3.31;80.64
11672;BME280;5892;43.412;24.612;2024-03-08T09:33:53;100782.88;;;3.43;80.92
11672;BME280;5892;43.412;24.612;2024-03-08T09:36:20;100780.53;;;3.59;80.87
11672;BME280;5892;43.412;24.612;2024-03-08T09:38:45;100782.44;;;3.54;81.41
11672;BME280;5892;43.412;24.612;2024-03-08T09:41:12;100779.88;;;3.54;79.01
11672;BME280;5892;43.412;24.612;2024-03-08T09:43:38;100778.63;;;3.64;78.16
11672;BME280;5892;43.412;24.612;2024-03-08T09:46:04;100773.81;;;3.55;79.75
11672;BME280;5892;43.412;24.612;2024-03-08T09:48:32;100776.34;;;3.56;79.35
11672;BME280;5892;43.412;24.612;2024-03-08T09:50:58;100777.75;;;3.64;78.96
11672;BME280;5892;43.412;24.612;2024-03-08T09:53:24;100785.13;;;3.73;79.59
11672;BME280;5892;43.412;24.612;2024-03-08T09:55:49;100782.53;;;3.73;79.89
11672;BME280;5892;43.412;24.612;2024-03-08T09:58:15;100789.41;;;3.72;79.60
11672;BME280;5892;43.412;24.612;2024-03-08T10:00:47;100788.56;;;3.72;78.34
11672;BME280;5892;43.412;24.612;2024-03-08T10:03:13;100790.56;;;3.65;78.96
11672;BME280;5892;43.412;24.612;2024-03-08T10:05:41;100778.91;;;3.56;78.83
11672;BME280;5892;43.412;24.612;2024-03-08T10:08:06;100785.78;;;3.56;78.70
11672;BME280;5892;43.412;24.612;2024-03-08T10:10:34;100783.56;;;3.69;79.02
11672;BME280;5892;43.412;24.612;2024-03-08T10:13:01;100789.00;;;3.83;78.57
11672;BME280;5892;43.412;24.612;2024-03-08T10:15:27;100782.03;;;3.85;79.11
11672;BME280;5892;43.412;24.612;2024-03-08T10:17:58;100787.84;;;3.90;77.62
11672;BME280;5892;43.412;24.612;2024-03-08T10:20:23;100790.88;;;3.57;78.97
11672;BME280;5892;43.412;24.612;2024-03-08T10:22:49;100793.00;;;3.68;77.17
11672;BME280;5892;43.412;24.612;2024-03-08T10:25:16;100788.97;;;3.63;77.46
11672;BME280;5892;43.412;24.612;2024-03-08T10:27:42;100795.69;;;3.65;78.82
11672;BME280;5892;43.412;24.612;2024-03-08T10:30:15;100791.16;;;3.72;78.26
11672;BME280;5892;43.412;24.612;2024-03-08T10:32:44;100792.19;;;3.68;78.05
11672;BME280;5892;43.412;24.612;2024-03-08T10:35:10;100784.69;;;3.62;77.65
11672;BME280;5892;43.412;24.612;2024-03-08T10:37:45;100780.28;;;3.65;78.48
11672;BME280;5892;43.412;24.612;2024-03-08T10:40:16;100778.78;;;3.59;79.82
11672;BME280;5892;43.412;24.612;2024-03-08T10:42:57;100778.13;;;3.54;78.54
11672;BME280;5892;43.412;24.612;2024-03-08T10:45:36;100771.25;;;3.55;79.63
11672;BME280;5892;43.412;24.612;2024-03-08T10:48:30;100771.25;;;3.55;78.90
11672;BME280;5892;43.412;24.612;2024-03-08T10:51:04;100773.31;;;3.67;79.05
11672;BME280;5892;43.412;24.612;2024-03-08T10:53:30;100768.75;;;3.53;78.62
11672;BME280;5892;43.412;24.612;2024-03-08T10:55:57;100770.31;;;3.57;78.61
11672;BME280;5892;43.412;24.612;2024-03-08T10:58:24;100775.50;;;3.56;79.42
11672;BME280;5892;43.412;24.612;2024-03-08T11:00:57;100765.19;;;3.78;79.03
11672;BME280;5892;43.412;24.612;2024-03-08T11:03:44;100764.59;;;4.12;77.45
11672;BME280;5892;43.412;24.612;2024-03-08T11:06:49;100759.84;;;4.03;77.66
11672;BME280;5892;43.412;24.612;2024-03-08T11:14:44;100756.44;;;4.03;78.47
11672;BME280;5892;43.412;24.612;2024-03-08T11:17:13;100753.13;;;4.20;76.91
11672;BME280;5892;43.412;24.612;2024-03-08T11:19:46;100754.53;;;4.08;77.63
11672;BME280;5892;43.412;24.612;2024-03-08T11:22:21;100762.47;;;4.02;78.09
11672;BME280;5892;43.412;24.612;2024-03-08T11:25:30;100755.84;;;3.75;78.79
11672;BME280;5892;43.412;24.612;2024-03-08T11:28:11;100750.91;;;4.12;77.08
11672;BME280;5892;43.412;24.612;2024-03-08T11:30:43;100755.66;;;4.21;76.97
11672;BME280;5892;43.412;24.612;2024-03-08T11:33:13;100755.59;;;4.23;76.96
11672;BME280;5892;43.412;24.612;2024-03-08T11:35:39;100749.91;;;4.35;75.55
11672;BME280;5892;43.412;24.612;2024-03-08T11:38:05;100748.56;;;4.26;76.51
11672;BME280;5892;43.412;24.612;2024-03-08T11:40:33;100746.81;;;4.08;77.00
11672;BME280;5892;43.412;24.612;2024-03-08T11:43:00;100740.91;;;4.25;76.97
11672;BME280;5892;43.412;24.612;2024-03-08T11:45:28;100748.72;;;4.23;76.54
11672;BME280;5892;43.412;24.612;2024-03-08T11:47:54;100739.34;;;4.41;75.53
11672;BME280;5892;43.412;24.612;2024-03-08T11:50:20;100740.75;;;4.48;75.79
11672;BME280;5892;43.412;24.612;2024-03-08T11:52:46;100744.97;;;4.30;76.15
11672;BME280;5892;43.412;24.612;2024-03-08T11:55:12;100738.97;;;4.30;76.08
11672;BME280;5892;43.412;24.612;2024-03-08T11:57:38;100740.22;;;4.40;77.45
11672;BME280;5892;43.412;24.612;2024-03-08T12:00:04;100737.09;;;4.33;77.56
11672;BME280;5892;43.412;24.612;2024-03-08T12:02:35;100739.41;;;4.40;76.63
11672;BME280;5892;43.412;24.612;2024-03-08T12:05:04;100745.09;;;4.27;76.68
11672;BME280;5892;43.412;24.612;2024-03-08T12:07:31;100738.50;;;4.22;76.58
11672;BME280;5892;43.412;24.612;2024-03-08T12:10:19;100748.56;;;4.26;77.57
11672;BME280;5892;43.412;24.612;2024-03-08T12:12:47;100742.00;;;4.19;77.56
11672;BME280;5892;43.412;24.612;2024-03-08T12:15:15;100747.91;;;4.21;76.65
11672;BME280;5892;43.412;24.612;2024-03-08T12:17:43;100754.75;;;4.22;76.95
11672;BME280;5892;43.412;24.612;2024-03-08T12:20:20;100747.75;;;4.05;77.56
11672;BME280;5892;43.412;24.612;2024-03-08T12:22:54;100746.22;;;4.01;78.06
11672;BME280;5892;43.412;24.612;2024-03-08T12:25:26;100746.66;;;4.11;78.73
11672;BME280;5892;43.412;24.612;2024-03-08T12:27:51;100742.66;;;4.04;78.35
11672;BME280;5892;43.412;24.612;2024-03-08T12:30:23;100750.84;;;4.13;77.86
11672;BME280;5892;43.412;24.612;2024-03-08T12:33:00;100745.94;;;4.07;77.37
11672;BME280;5892;43.412;24.612;2024-03-08T12:35:30;100745.25;;;4.04;78.10
11672;BME280;5892;43.412;24.612;2024-03-08T12:37:58;100754.69;;;3.83;77.99
11672;BME280;5892;43.412;24.612;2024-03-08T12:40:30;100754.00;;;3.79;77.78
11672;BME280;5892;43.412;24.612;2024-03-08T12:42:57;100747.56;;;3.69;79.43
11672;BME280;5892;43.412;24.612;2024-03-08T12:45:23;100747.03;;;3.81;79.02
11672;BME280;5892;43.412;24.612;2024-03-08T12:47:55;100746.88;;;4.06;78.62
11672;BME280;5892;43.412;24.612;2024-03-08T12:50:22;100739.78;;;4.11;76.96
11672;BME280;5892;43.412;24.612;2024-03-08T12:52:48;100736.94;;;4.18;76.76
11672;BME280;5892;43.412;24.612;2024-03-08T12:55:14;100743.81;;;4.17;77.11
11672;BME280;5892;43.412;24.612;2024-03-08T12:57:41;100732.88;;;4.12;78.28
11672;BME280;5892;43.412;24.612;2024-03-08T13:00:08;100733.47;;;4.19;77.84
11672;BME280;5892;43.412;24.612;2024-03-08T13:02:39;100732.94;;;4.10;77.44
11672;BME280;5892;43.412;24.612;2024-03-08T13:05:05;100734.09;;;3.62;79.66
11672;BME280;5892;43.412;24.612;2024-03-08T13:07:31;100727.97;;;3.87;79.69